sensor_id;sensor_type;location;lat;lon;timestamp;temperature;humidity
306;DHT22;137;48.578;9.180;2023-11-21T00:00:20;7.30;98.20
306;DHT22;137;48.578;9.180;2023-11-21T00:02:46;7.30;98.20
306;DHT22;137;48.578;9.180;2023-11-21T00:05:14;7.30;98.20
306;DHT22;137;48.578;9.180;2023-11-21T00:07:42;7.30;98.20
306;DHT22;137;48.578;9.180;2023-11-21T00:10:10;7.20;98.20
306;DHT22;137;48.578;9.180;2023-11-21T00:12:37;7.20;98.20
306;DHT22;137;48.578;9.180;2023-11-21T00:15:06;7.20;98.20
306;DHT22;137;48.578;9.180;2023-11-21T00:17:34;7.30;98.20
306;DHT22;137;48.578;9.180;2023-11-21T00:20:01;7.30;98.20
306;DHT22;137;48.578;9.180;2023-11-21T00:22:31;7.40;98.20
306;DHT22;137;48.578;9.180;2023-11-21T00:25:00;7.40;98.20
306;DHT22;137;48.578;9.180;2023-11-21T00:27:26;7.40;98.20
306;DHT22;137;48.578;9.180;2023-11-21T00:29:53;7.40;98.20
306;DHT22;137;48.578;9.180;2023-11-21T00:32:20;7.50;98.20
306;DHT22;137;48.578;9.180;2023-11-21T00:34:46;7.50;98.20
306;DHT22;137;48.578;9.180;2023-11-21T00:37:14;7.50;98.20
306;DHT22;137;48.578;9.180;2023-11-21T00:39:41;7.50;98.20
306;DHT22;137;48.578;9.180;2023-11-21T00:42:09;7.50;98.20
306;DHT22;137;48.578;9.180;2023-11-21T00:44:37;7.60;98.20
306;DHT22;137;48.578;9.180;2023-11-21T00:47:04;7.60;98.20
306;DHT22;137;48.578;9.180;2023-11-21T00:49:31;7.70;98.20
306;DHT22;137;48.578;9.180;2023-11-21T00:51:58;7.70;98.20
306;DHT22;137;48.578;9.180;2023-11-21T00:54:26;7.70;98.20
306;DHT22;137;48.578;9.180;2023-11-21T00:56:53;7.70;98.20
306;DHT22;137;48.578;9.180;2023-11-21T00:59:21;7.70;98.20
306;DHT22;137;48.578;9.180;2023-11-21T01:01:48;7.70;98.20
306;DHT22;137;48.578;9.180;2023-11-21T01:04:15;7.70;98.20
306;DHT22;137;48.578;9.180;2023-11-21T01:06:42;7.80;98.20
306;DHT22;137;48.578;9.180;2023-11-21T01:09:09;7.80;98.20
306;DHT22;137;48.578;9.180;2023-11-21T01:11:36;7.80;98.20
306;DHT22;137;48.578;9.180;2023-11-21T01:14:04;7.80;98.20
306;DHT22;137;48.578;9.180;2023-11-21T01:16:33;7.80;98.20
306;DHT22;137;48.578;9.180;2023-11-21T01:19:00;7.90;98.20
306;DHT22;137;48.578;9.180;2023-11-21T01:21:27;7.90;98.20
306;DHT22;137;48.578;9.180;2023-11-21T01:23:54;7.90;98.20
306;DHT22;137;48.578;9.180;2023-11-21T01:26:21;7.90;98.20
306;DHT22;137;48.578;9.180;2023-11-21T01:28:48;7.80;98.20
306;DHT22;137;48.578;9.180;2023-11-21T01:31:15;7.80;98.20
306;DHT22;137;48.578;9.180;2023-11-21T01:33:44;7.80;98.20
306;DHT22;137;48.578;9.180;2023-11-21T01:36:10;7.80;98.20
306;DHT22;137;48.578;9.180;2023-11-21T01:38:37;7.80;98.20
306;DHT22;137;48.578;9.180;2023-11-21T01:41:05;7.80;98.20
306;DHT22;137;48.578;9.180;2023-11-21T01:43:31;7.70;98.20
306;DHT22;137;48.578;9.180;2023-11-21T01:45:58;7.60;98.20
306;DHT22;137;48.578;9.180;2023-11-21T01:48:26;7.50;98.20
306;DHT22;137;48.578;9.180;2023-11-21T01:50:55;7.40;98.20
306;DHT22;137;48.578;9.180;2023-11-21T01:53:24;7.30;98.20
306;DHT22;137;48.578;9.180;2023-11-21T01:55:53;7.30;98.20
306;DHT22;137;48.578;9.180;2023-11-21T01:58:21;7.30;98.20
306;DHT22;137;48.578;9.180;2023-11-21T02:00:48;7.40;98.20
306;DHT22;137;48.578;9.180;2023-11-21T02:03:16;7.40;98.20
306;DHT22;137;48.578;9.180;2023-11-21T02:05:43;7.40;98.20
306;DHT22;137;48.578;9.180;2023-11-21T02:08:11;7.40;98.20
306;DHT22;137;48.578;9.180;2023-11-21T02:10:38;7.40;98.20
306;DHT22;137;48.578;9.180;2023-11-21T02:13:04;7.40;98.20
306;DHT22;137;48.578;9.180;2023-11-21T02:15:31;7.40;98.20
306;DHT22;137;48.578;9.180;2023-11-21T02:17:58;7.40;98.20
306;DHT22;137;48.578;9.180;2023-11-21T02:20:26;7.30;98.20
306;DHT22;137;48.578;9.180;2023-11-21T02:22:56;7.30;98.20
306;DHT22;137;48.578;9.180;2023-11-21T02:25:25;7.20;98.20
306;DHT22;137;48.578;9.180;2023-11-21T02:27:52;7.20;98.20
306;DHT22;137;48.578;9.180;2023-11-21T02:30:20;7.10;98.20
306;DHT22;137;48.578;9.180;2023-11-21T02:32:47;7.00;98.20
306;DHT22;137;48.578;9.180;2023-11-21T02:35:14;7.00;98.20
306;DHT22;137;48.578;9.180;2023-11-21T02:37:41;6.90;98.20
306;DHT22;137;48.578;9.180;2023-11-21T02:40:10;6.90;98.20
306;DHT22;137;48.578;9.180;2023-11-21T02:42:39;6.90;98.20
306;DHT22;137;48.578;9.180;2023-11-21T02:45:06;6.90;98.20
306;DHT22;137;48.578;9.180;2023-11-21T02:47:33;6.90;98.20
306;DHT22;137;48.578;9.180;2023-11-21T02:50:00;6.90;98.20
306;DHT22;137;48.578;9.180;2023-11-21T02:52:27;6.80;98.20
306;DHT22;137;48.578;9.180;2023-11-21T02:54:53;6.80;98.20
306;DHT22;137;48.578;9.180;2023-11-21T02:57:21;6.80;98.20
306;DHT22;137;48.578;9.180;2023-11-21T02:59:48;6.80;98.20
306;DHT22;137;48.578;9.180;2023-11-21T03:02:15;6.80;98.20
306;DHT22;137;48.578;9.180;2023-11-21T03:04:42;6.80;98.20
306;DHT22;137;48.578;9.180;2023-11-21T03:07:09;6.80;98.20
306;DHT22;137;48.578;9.180;2023-11-21T03:09:36;6.80;98.20
306;DHT22;137;48.578;9.180;2023-11-21T03:12:03;6.80;98.20
306;DHT22;137;48.578;9.180;2023-11-21T03:14:31;6.90;98.20
306;DHT22;137;48.578;9.180;2023-11-21T03:16:59;7.00;98.20
306;DHT22;137;48.578;9.180;2023-11-21T03:19:25;7.00;98.20
306;DHT22;137;48.578;9.180;2023-11-21T03:21:52;7.00;98.20
306;DHT22;137;48.578;9.180;2023-11-21T03:24:19;7.00;98.20
306;DHT22;137;48.578;9.180;2023-11-21T03:26:48;7.00;98.20
306;DHT22;137;48.578;9.180;2023-11-21T03:29:15;7.10;98.20
306;DHT22;137;48.578;9.180;2023-11-21T03:31:43;7.10;98.20
306;DHT22;137;48.578;9.180;2023-11-21T03:34:15;7.10;98.20
306;DHT22;137;48.578;9.180;2023-11-21T03:36:43;7.10;98.20
306;DHT22;137;48.578;9.180;2023-11-21T03:39:11;7.10;98.20
306;DHT22;137;48.578;9.180;2023-11-21T03:41:38;7.10;98.20
306;DHT22;137;48.578;9.180;2023-11-21T03:44:05;7.00;98.20
306;DHT22;137;48.578;9.180;2023-11-21T03:46:32;7.00;98.20
306;DHT22;137;48.578;9.180;2023-11-21T03:49:00;7.10;98.20
306;DHT22;137;48.578;9.180;2023-11-21T03:51:26;7.10;98.20
306;DHT22;137;48.578;9.180;2023-11-21T03:53:53;7.10;98.20
306;DHT22;137;48.578;9.180;2023-11-21T03:56:20;7.10;98.20
306;DHT22;137;48.578;9.180;2023-11-21T03:58:47;7.10;98.20
306;DHT22;137;48.578;9.180;2023-11-21T04:01:19;7.10;98.20
306;DHT22;137;48.578;9.180;2023-11-21T04:03:47;7.10;98.20
306;DHT22;137;48.578;9.180;2023-11-21T04:06:15;7.10;98.20
306;DHT22;137;48.578;9.180;2023-11-21T04:08:42;7.20;98.20
306;DHT22;137;48.578;9.180;2023-11-21T04:11:09;7.20;98.20
306;DHT22;137;48.578;9.180;2023-11-21T04:13:37;7.20;98.20
306;DHT22;137;48.578;9.180;2023-11-21T04:16:05;7.20;98.20
306;DHT22;137;48.578;9.180;2023-11-21T04:18:31;7.20;98.20
306;DHT22;137;48.578;9.180;2023-11-21T04:20:59;7.20;98.20
306;DHT22;137;48.578;9.180;2023-11-21T04:23:28;7.20;98.20
306;DHT22;137;48.578;9.180;2023-11-21T04:25:55;7.20;98.20
306;DHT22;137;48.578;9.180;2023-11-21T04:28:23;7.20;98.20
306;DHT22;137;48.578;9.180;2023-11-21T04:30:50;7.30;98.20
306;DHT22;137;48.578;9.180;2023-11-21T04:33:16;7.30;98.20
306;DHT22;137;48.578;9.180;2023-11-21T04:35:43;7.30;98.20
306;DHT22;137;48.578;9.180;2023-11-21T04:38:10;7.30;98.20
306;DHT22;137;48.578;9.180;2023-11-21T04:40:38;7.40;98.20
306;DHT22;137;48.578;9.180;2023-11-21T04:43:05;7.40;98.20
306;DHT22;137;48.578;9.180;2023-11-21T04:45:31;7.40;98.20
306;DHT22;137;48.578;9.180;2023-11-21T04:47:58;7.40;98.20
306;DHT22;137;48.578;9.180;2023-11-21T04:50:25;7.40;98.20
306;DHT22;137;48.578;9.180;2023-11-21T04:52:52;7.40;98.20
306;DHT22;137;48.578;9.180;2023-11-21T04:55:19;7.30;98.20
306;DHT22;137;48.578;9.180;2023-11-21T04:57:47;7.30;98.20
306;DHT22;137;48.578;9.180;2023-11-21T05:00:14;7.30;98.20
306;DHT22;137;48.578;9.180;2023-11-21T05:02:41;7.30;98.20
306;DHT22;137;48.578;9.180;2023-11-21T05:05:09;7.30;98.20
306;DHT22;137;48.578;9.180;2023-11-21T05:07:36;7.30;98.20
306;DHT22;137;48.578;9.180;2023-11-21T05:10:04;7.20;98.20
306;DHT22;137;48.578;9.180;2023-11-21T05:12:33;7.30;98.20
306;DHT22;137;48.578;9.180;2023-11-21T05:15:04;7.30;98.20
306;DHT22;137;48.578;9.180;2023-11-21T05:17:35;7.40;98.20
306;DHT22;137;48.578;9.180;2023-11-21T05:20:02;7.40;98.20
306;DHT22;137;48.578;9.180;2023-11-21T05:22:47;7.40;98.20
306;DHT22;137;48.578;9.180;2023-11-21T05:25:15;7.40;98.20
306;DHT22;137;48.578;9.180;2023-11-21T05:27:43;7.40;98.20
306;DHT22;137;48.578;9.180;2023-11-21T05:30:13;7.40;98.20
306;DHT22;137;48.578;9.180;2023-11-21T05:32:40;7.40;98.20
306;DHT22;137;48.578;9.180;2023-11-21T05:35:08;7.40;98.20
306;DHT22;137;48.578;9.180;2023-11-21T05:37:39;7.40;98.20
306;DHT22;137;48.578;9.180;2023-11-21T05:40:07;7.40;98.20
306;DHT22;137;48.578;9.180;2023-11-21T05:42:34;7.30;98.20
306;DHT22;137;48.578;9.180;2023-11-21T05:45:01;7.30;98.20
306;DHT22;137;48.578;9.180;2023-11-21T05:47:37;7.30;98.20
306;DHT22;137;48.578;9.180;2023-11-21T05:50:04;7.30;98.20
306;DHT22;137;48.578;9.180;2023-11-21T05:52:31;7.30;98.20
306;DHT22;137;48.578;9.180;2023-11-21T05:54:59;7.30;98.20
306;DHT22;137;48.578;9.180;2023-11-21T05:57:25;7.30;98.20
306;DHT22;137;48.578;9.180;2023-11-21T05:59:52;7.20;98.20
306;DHT22;137;48.578;9.180;2023-11-21T06:02:19;7.20;98.20
306;DHT22;137;48.578;9.180;2023-11-21T06:04:47;7.20;98.20
306;DHT22;137;48.578;9.180;2023-11-21T06:07:13;7.10;98.20
306;DHT22;137;48.578;9.180;2023-11-21T06:09:40;7.10;98.20
306;DHT22;137;48.578;9.180;2023-11-21T06:12:07;7.00;98.20
306;DHT22;137;48.578;9.180;2023-11-21T06:14:34;7.00;98.20
306;DHT22;137;48.578;9.180;2023-11-21T06:17:01;7.00;98.20
306;DHT22;137;48.578;9.180;2023-11-21T06:19:29;7.00;98.20
306;DHT22;137;48.578;9.180;2023-11-21T06:21:57;7.10;98.20
306;DHT22;137;48.578;9.180;2023-11-21T06:24:24;7.10;98.20
306;DHT22;137;48.578;9.180;2023-11-21T06:26:50;7.10;98.20
306;DHT22;137;48.578;9.180;2023-11-21T06:29:17;7.10;98.20
306;DHT22;137;48.578;9.180;2023-11-21T06:31:44;7.10;98.20
306;DHT22;137;48.578;9.180;2023-11-21T06:34:11;7.20;98.20
306;DHT22;137;48.578;9.180;2023-11-21T06:36:39;7.20;98.20
306;DHT22;137;48.578;9.180;2023-11-21T06:39:07;7.20;98.20
306;DHT22;137;48.578;9.180;2023-11-21T06:41:34;7.20;98.20
306;DHT22;137;48.578;9.180;2023-11-21T06:44:04;7.20;98.20
306;DHT22;137;48.578;9.180;2023-11-21T06:46:31;7.30;98.20
306;DHT22;137;48.578;9.180;2023-11-21T06:48:57;7.30;98.20
306;DHT22;137;48.578;9.180;2023-11-21T06:51:24;7.30;98.20
306;DHT22;137;48.578;9.180;2023-11-21T06:53:51;7.30;98.20
306;DHT22;137;48.578;9.180;2023-11-21T06:56:19;7.30;98.20
306;DHT22;137;48.578;9.180;2023-11-21T06:58:46;7.30;98.20
306;DHT22;137;48.578;9.180;2023-11-21T07:01:12;7.30;98.20
306;DHT22;137;48.578;9.180;2023-11-21T07:03:40;7.30;98.20
306;DHT22;137;48.578;9.180;2023-11-21T07:06:08;7.30;98.20
306;DHT22;137;48.578;9.180;2023-11-21T07:08:35;7.30;98.20
306;DHT22;137;48.578;9.180;2023-11-21T07:11:02;7.40;98.20
306;DHT22;137;48.578;9.180;2023-11-21T07:13:31;7.50;98.20
306;DHT22;137;48.578;9.180;2023-11-21T07:15:58;7.50;98.20
306;DHT22;137;48.578;9.180;2023-11-21T07:18:25;7.50;98.20
306;DHT22;137;48.578;9.180;2023-11-21T07:20:52;7.60;98.20
306;DHT22;137;48.578;9.180;2023-11-21T07:23:19;7.60;98.20
306;DHT22;137;48.578;9.180;2023-11-21T07:25:48;7.70;98.20
306;DHT22;137;48.578;9.180;2023-11-21T07:28:15;7.70;98.20
306;DHT22;137;48.578;9.180;2023-11-21T07:30:43;7.80;98.20
306;DHT22;137;48.578;9.180;2023-11-21T07:33:10;7.80;98.20
306;DHT22;137;48.578;9.180;2023-11-21T07:35:36;7.80;98.20
306;DHT22;137;48.578;9.180;2023-11-21T07:38:03;7.90;98.20
306;DHT22;137;48.578;9.180;2023-11-21T07:40:30;8.00;98.20
306;DHT22;137;48.578;9.180;2023-11-21T07:42:57;8.00;98.20
306;DHT22;137;48.578;9.180;2023-11-21T07:45:25;8.00;98.20
306;DHT22;137;48.578;9.180;2023-11-21T07:47:54;8.00;98.20
306;DHT22;137;48.578;9.180;2023-11-21T07:50:21;8.00;98.20
306;DHT22;137;48.578;9.180;2023-11-21T07:52:48;8.10;98.20
306;DHT22;137;48.578;9.180;2023-11-21T07:55:16;8.10;98.20
306;DHT22;137;48.578;9.180;2023-11-21T07:57:42;8.10;98.20
306;DHT22;137;48.578;9.180;2023-11-21T08:00:10;8.10;98.20
306;DHT22;137;48.578;9.180;2023-11-21T08:02:38;8.20;98.20
306;DHT22;137;48.578;9.180;2023-11-21T08:05:06;8.20;98.20
306;DHT22;137;48.578;9.180;2023-11-21T08:07:33;8.30;98.20
306;DHT22;137;48.578;9.180;2023-11-21T08:10:00;8.30;98.20
306;DHT22;137;48.578;9.180;2023-11-21T08:12:27;8.40;98.20
306;DHT22;137;48.578;9.180;2023-11-21T08:14:54;8.40;98.20
306;DHT22;137;48.578;9.180;2023-11-21T08:17:20;8.50;98.20
306;DHT22;137;48.578;9.180;2023-11-21T08:19:48;8.50;98.20
306;DHT22;137;48.578;9.180;2023-11-21T08:22:18;8.50;98.20
306;DHT22;137;48.578;9.180;2023-11-21T08:24:44;8.60;98.20
306;DHT22;137;48.578;9.180;2023-11-21T08:27:12;8.60;98.20
306;DHT22;137;48.578;9.180;2023-11-21T08:29:41;8.60;98.20
306;DHT22;137;48.578;9.180;2023-11-21T08:32:08;8.60;98.20
306;DHT22;137;48.578;9.180;2023-11-21T08:34:35;8.60;98.20
306;DHT22;137;48.578;9.180;2023-11-21T08:37:02;8.60;98.20
306;DHT22;137;48.578;9.180;2023-11-21T08:39:30;8.70;98.20
306;DHT22;137;48.578;9.180;2023-11-21T08:41:57;8.70;98.20
306;DHT22;137;48.578;9.180;2023-11-21T08:44:24;8.70;98.20
306;DHT22;137;48.578;9.180;2023-11-21T08:46:50;8.70;98.20
306;DHT22;137;48.578;9.180;2023-11-21T08:49:23;8.70;98.20
306;DHT22;137;48.578;9.180;2023-11-21T08:51:51;8.70;98.20
306;DHT22;137;48.578;9.180;2023-11-21T08:54:18;8.80;98.20
306;DHT22;137;48.578;9.180;2023-11-21T08:56:47;8.80;98.20
306;DHT22;137;48.578;9.180;2023-11-21T08:59:13;8.90;98.20
306;DHT22;137;48.578;9.180;2023-11-21T09:01:40;8.90;98.20
306;DHT22;137;48.578;9.180;2023-11-21T09:04:07;8.90;98.20
306;DHT22;137;48.578;9.180;2023-11-21T09:06:34;8.90;98.20
306;DHT22;137;48.578;9.180;2023-11-21T09:09:01;8.90;98.20
306;DHT22;137;48.578;9.180;2023-11-21T09:11:30;8.90;98.20
306;DHT22;137;48.578;9.180;2023-11-21T09:14:00;8.90;98.20
306;DHT22;137;48.578;9.180;2023-11-21T09:16:27;9.00;98.20
306;DHT22;137;48.578;9.180;2023-11-21T09:18:54;9.00;98.20
306;DHT22;137;48.578;9.180;2023-11-21T09:21:20;9.10;98.20
306;DHT22;137;48.578;9.180;2023-11-21T09:23:48;9.20;98.20
306;DHT22;137;48.578;9.180;2023-11-21T09:26:15;9.20;98.20
306;DHT22;137;48.578;9.180;2023-11-21T09:28:44;9.20;98.20
306;DHT22;137;48.578;9.180;2023-11-21T09:31:14;9.40;98.20
306;DHT22;137;48.578;9.180;2023-11-21T09:33:42;9.40;98.20
306;DHT22;137;48.578;9.180;2023-11-21T09:36:11;9.50;98.20
306;DHT22;137;48.578;9.180;2023-11-21T09:38:39;9.90;98.20
306;DHT22;137;48.578;9.180;2023-11-21T09:41:15;10.30;98.20
306;DHT22;137;48.578;9.180;2023-11-21T09:43:44;10.50;98.20
306;DHT22;137;48.578;9.180;2023-11-21T09:46:14;10.70;98.20
306;DHT22;137;48.578;9.180;2023-11-21T09:48:47;10.90;98.20
306;DHT22;137;48.578;9.180;2023-11-21T09:51:18;10.90;98.20
306;DHT22;137;48.578;9.180;2023-11-21T09:53:49;10.80;98.20
306;DHT22;137;48.578;9.180;2023-11-21T09:56:17;10.70;98.20
306;DHT22;137;48.578;9.180;2023-11-21T09:58:51;10.50;98.20
306;DHT22;137;48.578;9.180;2023-11-21T10:01:20;10.30;98.20
306;DHT22;137;48.578;9.180;2023-11-21T10:03:48;10.20;98.20
306;DHT22;137;48.578;9.180;2023-11-21T10:06:16;10.20;98.20
306;DHT22;137;48.578;9.180;2023-11-21T10:08:44;10.10;98.20
306;DHT22;137;48.578;9.180;2023-11-21T10:11:12;10.10;98.20
306;DHT22;137;48.578;9.180;2023-11-21T10:13:41;10.20;98.20
306;DHT22;137;48.578;9.180;2023-11-21T10:16:09;10.30;98.20
306;DHT22;137;48.578;9.180;2023-11-21T10:18:40;10.30;98.20
306;DHT22;137;48.578;9.180;2023-11-21T10:21:07;10.30;98.20
306;DHT22;137;48.578;9.180;2023-11-21T10:23:34;10.30;98.20
306;DHT22;137;48.578;9.180;2023-11-21T10:26:01;10.30;98.20
306;DHT22;137;48.578;9.180;2023-11-21T10:28:28;10.30;98.20
306;DHT22;137;48.578;9.180;2023-11-21T10:30:56;10.30;98.20
306;DHT22;137;48.578;9.180;2023-11-21T10:33:27;10.30;98.20
306;DHT22;137;48.578;9.180;2023-11-21T10:35:55;10.30;98.20
306;DHT22;137;48.578;9.180;2023-11-21T10:38:22;10.30;98.20
306;DHT22;137;48.578;9.180;2023-11-21T10:40:50;10.30;98.20
306;DHT22;137;48.578;9.180;2023-11-21T10:43:17;10.30;98.20
306;DHT22;137;48.578;9.180;2023-11-21T10:45:45;10.40;98.20
306;DHT22;137;48.578;9.180;2023-11-21T10:48:13;10.50;98.20
306;DHT22;137;48.578;9.180;2023-11-21T10:50:42;10.40;98.20
306;DHT22;137;48.578;9.180;2023-11-21T10:53:11;10.40;98.20
306;DHT22;137;48.578;9.180;2023-11-21T10:55:38;10.50;98.20
306;DHT22;137;48.578;9.180;2023-11-21T10:58:05;10.50;98.20
306;DHT22;137;48.578;9.180;2023-11-21T11:00:33;10.60;98.20
306;DHT22;137;48.578;9.180;2023-11-21T11:03:00;10.60;98.20
306;DHT22;137;48.578;9.180;2023-11-21T11:05:30;10.60;98.20
306;DHT22;137;48.578;9.180;2023-11-21T11:08:00;10.60;98.20
306;DHT22;137;48.578;9.180;2023-11-21T11:10:29;10.50;98.20
306;DHT22;137;48.578;9.180;2023-11-21T11:12:56;10.40;98.20
306;DHT22;137;48.578;9.180;2023-11-21T11:15:24;10.30;98.20
306;DHT22;137;48.578;9.180;2023-11-21T11:17:51;10.30;98.20
306;DHT22;137;48.578;9.180;2023-11-21T11:20:23;10.20;98.20
306;DHT22;137;48.578;9.180;2023-11-21T11:23:04;10.10;98.20
306;DHT22;137;48.578;9.180;2023-11-21T11:25:55;10.10;98.20
306;DHT22;137;48.578;9.180;2023-11-21T11:28:29;10.00;98.20
306;DHT22;137;48.578;9.180;2023-11-21T11:31:08;10.00;98.20
306;DHT22;137;48.578;9.180;2023-11-21T11:33:41;10.00;98.20
306;DHT22;137;48.578;9.180;2023-11-21T11:36:15;9.90;98.20
306;DHT22;137;48.578;9.180;2023-11-21T11:38:46;9.70;98.20
306;DHT22;137;48.578;9.180;2023-11-21T11:41:24;9.60;98.20
306;DHT22;137;48.578;9.180;2023-11-21T11:43:52;9.60;98.20
306;DHT22;137;48.578;9.180;2023-11-21T11:46:19;9.60;98.20
306;DHT22;137;48.578;9.180;2023-11-21T11:48:48;9.50;98.20
306;DHT22;137;48.578;9.180;2023-11-21T11:51:15;9.40;98.20
306;DHT22;137;48.578;9.180;2023-11-21T11:53:46;9.40;98.20
306;DHT22;137;48.578;9.180;2023-11-21T11:56:26;9.40;98.20
306;DHT22;137;48.578;9.180;2023-11-21T11:58:57;9.50;98.20
306;DHT22;137;48.578;9.180;2023-11-21T12:01:26;9.60;98.20
306;DHT22;137;48.578;9.180;2023-11-21T12:04:24;9.60;98.20
306;DHT22;137;48.578;9.180;2023-11-21T12:06:59;9.70;98.20
306;DHT22;137;48.578;9.180;2023-11-21T12:09:28;9.70;98.20
306;DHT22;137;48.578;9.180;2023-11-21T12:11:58;9.80;98.20
306;DHT22;137;48.578;9.180;2023-11-21T12:14:25;9.80;98.20
306;DHT22;137;48.578;9.180;2023-11-21T12:16:53;9.70;98.20
306;DHT22;137;48.578;9.180;2023-11-21T12:19:20;9.70;98.20
306;DHT22;137;48.578;9.180;2023-11-21T12:21:48;9.60;98.20
306;DHT22;137;48.578;9.180;2023-11-21T12:24:16;9.60;98.20
306;DHT22;137;48.578;9.180;2023-11-21T12:26:43;9.60;98.20
306;DHT22;137;48.578;9.180;2023-11-21T12:29:11;9.50;98.20
306;DHT22;137;48.578;9.180;2023-11-21T12:31:38;9.50;98.20
306;DHT22;137;48.578;9.180;2023-11-21T12:34:06;9.50;98.20
306;DHT22;137;48.578;9.180;2023-11-21T12:36:34;9.50;98.20
306;DHT22;137;48.578;9.180;2023-11-21T12:39:02;9.50;98.20
306;DHT22;137;48.578;9.180;2023-11-21T12:41:29;9.50;98.20
306;DHT22;137;48.578;9.180;2023-11-21T12:43:57;9.60;98.20
306;DHT22;137;48.578;9.180;2023-11-21T12:46:25;9.70;98.20
306;DHT22;137;48.578;9.180;2023-11-21T12:48:55;9.80;98.20
306;DHT22;137;48.578;9.180;2023-11-21T12:51:22;9.90;98.20
306;DHT22;137;48.578;9.180;2023-11-21T12:53:50;10.00;98.20
306;DHT22;137;48.578;9.180;2023-11-21T12:56:18;10.10;98.20
306;DHT22;137;48.578;9.180;2023-11-21T12:58:48;10.20;98.20
306;DHT22;137;48.578;9.180;2023-11-21T13:01:16;10.20;98.20
306;DHT22;137;48.578;9.180;2023-11-21T13:03:47;10.30;98.20
306;DHT22;137;48.578;9.180;2023-11-21T13:06:17;10.50;98.20
306;DHT22;137;48.578;9.180;2023-11-21T13:08:44;10.50;98.20
306;DHT22;137;48.578;9.180;2023-11-21T13:11:11;10.60;98.20
306;DHT22;137;48.578;9.180;2023-11-21T13:13:40;10.60;98.20
306;DHT22;137;48.578;9.180;2023-11-21T13:16:08;10.60;98.20
306;DHT22;137;48.578;9.180;2023-11-21T13:18:35;10.60;98.20
306;DHT22;137;48.578;9.180;2023-11-21T13:21:04;10.60;98.20
306;DHT22;137;48.578;9.180;2023-11-21T13:23:35;10.60;98.20
306;DHT22;137;48.578;9.180;2023-11-21T13:26:03;10.60;98.20
306;DHT22;137;48.578;9.180;2023-11-21T13:28:30;10.50;98.20
306;DHT22;137;48.578;9.180;2023-11-21T13:30:58;10.50;98.20
306;DHT22;137;48.578;9.180;2023-11-21T13:33:28;10.50;98.20
306;DHT22;137;48.578;9.180;2023-11-21T13:35:55;10.50;98.20
306;DHT22;137;48.578;9.180;2023-11-21T13:38:24;10.50;98.20
306;DHT22;137;48.578;9.180;2023-11-21T13:40:55;10.50;98.20
306;DHT22;137;48.578;9.180;2023-11-21T13:43:24;10.50;98.20
306;DHT22;137;48.578;9.180;2023-11-21T13:45:54;10.60;98.20
306;DHT22;137;48.578;9.180;2023-11-21T13:48:25;10.60;98.20
306;DHT22;137;48.578;9.180;2023-11-21T13:50:57;10.70;98.20
306;DHT22;137;48.578;9.180;2023-11-21T13:53:28;10.60;98.20
306;DHT22;137;48.578;9.180;2023-11-21T13:55:55;10.50;98.20
306;DHT22;137;48.578;9.180;2023-11-21T13:58:23;10.40;98.20
306;DHT22;137;48.578;9.180;2023-11-21T14:01:00;10.20;98.20
306;DHT22;137;48.578;9.180;2023-11-21T14:03:31;10.10;98.20
306;DHT22;137;48.578;9.180;2023-11-21T14:06:05;9.90;98.20
306;DHT22;137;48.578;9.180;2023-11-21T14:08:41;9.90;98.20
306;DHT22;137;48.578;9.180;2023-11-21T14:11:08;9.80;98.20
306;DHT22;137;48.578;9.180;2023-11-21T14:13:36;9.70;98.20
306;DHT22;137;48.578;9.180;2023-11-21T14:16:03;9.60;98.20
306;DHT22;137;48.578;9.180;2023-11-21T14:18:32;9.60;98.20
306;DHT22;137;48.578;9.180;2023-11-21T14:21:04;9.40;98.20
306;DHT22;137;48.578;9.180;2023-11-21T14:23:31;9.40;98.20
306;DHT22;137;48.578;9.180;2023-11-21T14:26:01;9.30;98.20
306;DHT22;137;48.578;9.180;2023-11-21T14:28:29;9.30;98.20
306;DHT22;137;48.578;9.180;2023-11-21T14:30:56;9.20;98.20
306;DHT22;137;48.578;9.180;2023-11-21T14:33:23;9.10;98.20
306;DHT22;137;48.578;9.180;2023-11-21T14:35:49;9.10;98.20
306;DHT22;137;48.578;9.180;2023-11-21T14:38:16;9.10;98.20
306;DHT22;137;48.578;9.180;2023-11-21T14:40:43;9.20;98.20
306;DHT22;137;48.578;9.180;2023-11-21T14:43:11;9.20;98.20
306;DHT22;137;48.578;9.180;2023-11-21T14:45:38;9.30;98.20
306;DHT22;137;48.578;9.180;2023-11-21T14:48:05;9.30;98.20
306;DHT22;137;48.578;9.180;2023-11-21T14:50:34;9.20;98.20
306;DHT22;137;48.578;9.180;2023-11-21T14:53:19;9.10;98.20
306;DHT22;137;48.578;9.180;2023-11-21T14:56:06;8.90;98.20
306;DHT22;137;48.578;9.180;2023-11-21T14:58:34;8.80;98.20
306;DHT22;137;48.578;9.180;2023-11-21T15:01:03;8.70;98.20
306;DHT22;137;48.578;9.180;2023-11-21T15:03:29;8.70;98.20
306;DHT22;137;48.578;9.180;2023-11-21T15:06:15;8.70;98.20
306;DHT22;137;48.578;9.180;2023-11-21T15:08:48;8.60;98.20
306;DHT22;137;48.578;9.180;2023-11-21T15:11:19;8.60;98.20
306;DHT22;137;48.578;9.180;2023-11-21T15:13:46;8.60;98.20
306;DHT22;137;48.578;9.180;2023-11-21T15:16:14;8.60;98.20
306;DHT22;137;48.578;9.180;2023-11-21T15:18:40;8.50;98.20
306;DHT22;137;48.578;9.180;2023-11-21T15:21:06;8.50;98.20
306;DHT22;137;48.578;9.180;2023-11-21T15:23:36;8.50;98.20
306;DHT22;137;48.578;9.180;2023-11-21T15:26:04;8.50;98.20
306;DHT22;137;48.578;9.180;2023-11-21T15:28:31;8.50;98.20
306;DHT22;137;48.578;9.180;2023-11-21T15:31:00;8.40;98.20
306;DHT22;137;48.578;9.180;2023-11-21T15:33:28;8.40;98.20
306;DHT22;137;48.578;9.180;2023-11-21T15:35:54;8.40;98.20
306;DHT22;137;48.578;9.180;2023-11-21T15:38:21;8.40;98.20
306;DHT22;137;48.578;9.180;2023-11-21T15:40:49;8.30;98.20
306;DHT22;137;48.578;9.180;2023-11-21T15:43:16;8.30;98.20
306;DHT22;137;48.578;9.180;2023-11-21T15:45:42;8.30;98.20
306;DHT22;137;48.578;9.180;2023-11-21T15:48:11;8.30;98.20
306;DHT22;137;48.578;9.180;2023-11-21T15:50:38;8.30;98.20
306;DHT22;137;48.578;9.180;2023-11-21T15:53:05;8.30;98.20
306;DHT22;137;48.578;9.180;2023-11-21T15:55:32;8.30;98.20
306;DHT22;137;48.578;9.180;2023-11-21T15:58:01;8.30;98.20
306;DHT22;137;48.578;9.180;2023-11-21T16:00:30;8.30;98.20
306;DHT22;137;48.578;9.180;2023-11-21T16:02:56;8.30;98.20
306;DHT22;137;48.578;9.180;2023-11-21T16:05:25;8.30;98.20
306;DHT22;137;48.578;9.180;2023-11-21T16:07:52;8.30;98.20
306;DHT22;137;48.578;9.180;2023-11-21T16:10:20;8.30;98.20
306;DHT22;137;48.578;9.180;2023-11-21T16:12:46;8.20;98.20
306;DHT22;137;48.578;9.180;2023-11-21T16:15:13;8.20;98.20
306;DHT22;137;48.578;9.180;2023-11-21T16:17:40;8.30;98.20
306;DHT22;137;48.578;9.180;2023-11-21T16:22:46;8.20;98.20
306;DHT22;137;48.578;9.180;2023-11-21T16:25:14;8.20;98.20
306;DHT22;137;48.578;9.180;2023-11-21T16:27:41;8.30;98.20
306;DHT22;137;48.578;9.180;2023-11-21T16:30:09;8.30;98.20
306;DHT22;137;48.578;9.180;2023-11-21T16:32:37;8.30;98.20
306;DHT22;137;48.578;9.180;2023-11-21T16:35:04;8.30;98.20
306;DHT22;137;48.578;9.180;2023-11-21T16:37:31;8.30;98.20
306;DHT22;137;48.578;9.180;2023-11-21T16:39:59;8.30;98.20
306;DHT22;137;48.578;9.180;2023-11-21T16:42:26;8.30;98.20
306;DHT22;137;48.578;9.180;2023-11-21T16:44:55;8.30;98.20
306;DHT22;137;48.578;9.180;2023-11-21T16:47:22;8.30;98.20
306;DHT22;137;48.578;9.180;2023-11-21T16:49:50;8.30;98.20
306;DHT22;137;48.578;9.180;2023-11-21T16:52:17;8.20;98.20
306;DHT22;137;48.578;9.180;2023-11-21T16:54:47;8.30;98.20
306;DHT22;137;48.578;9.180;2023-11-21T16:57:16;8.20;98.20